Terminal Aerodrome Forecast
Issued by NWS

Home | Current Version | Previous Version | Graphics & Text | Print | Product List | Glossary On
Versions: 1 2 3 4 5 6 7 8 9 10 11 12 13 14 15 16 17 18 19
000
FTUS43 KDVN 181500 AAB
TAFCID
TAF AMD
KCID 181502Z 1815/1912 21006KT 3SM BR BKN002
      TEMPO 1815/1817 5SM BR
     FM181700 22008KT 5SM HZ SCT005 SCT050
     FM181800 20008KT P6SM SCT035
      TEMPO 1900/1904 4SM -TSRA BR BKN025CB
     FM190400 24005KT 6SM BR SCT150=

USA.gov is the U.S. government's official web portal to all federal, state and local government web resources and services.